TimeEST,TemperatureF,Dew PointF,Humidity,Sea Level PressureIn,VisibilityMPH,Wind Direction,Wind SpeedMPH,Gust SpeedMPH,PrecipitationIn,Events,Conditions,WindDirDegrees,DateUTC
12:53 AM,34.0,21.0,59,30.23,10.0,North,9.2,-,N/A,,Scattered Clouds,10,2014-02-11 05:53:00
1:53 AM,34.0,19.9,56,30.23,10.0,NNE,9.2,-,N/A,,Mostly Cloudy,20,2014-02-11 06:53:00
2:53 AM,33.1,18.0,54,30.22,10.0,North,12.7,-,N/A,,Overcast,10,2014-02-11 07:53:00
3:34 AM,32.0,19.0,59,30.23,10.0,North,15.0,-,N/A,,Overcast,10,2014-02-11 08:34:00
3:53 AM,30.9,21.9,69,30.25,4.0,NNE,9.2,-,0.00,Snow,Light Snow,20,2014-02-11 08:53:00
4:17 AM,30.9,21.9,69,30.22,2.5,NNE,8.1,-,0.00,Snow,Light Snow,20,2014-02-11 09:17:00
4:25 AM,30.9,21.9,69,30.22,5.0,NNE,9.2,-,0.00,Snow,Light Snow,20,2014-02-11 09:25:00
4:53 AM,32.0,19.9,61,30.23,8.0,NNE,12.7,18.4,0.00,Snow,Light Snow,20,2014-02-11 09:53:00
5:49 AM,32.0,17.6,55,30.22,10.0,NNE,11.5,-,0.00,,Overcast,20,2014-02-11 10:49:00
5:53 AM,32.0,18.0,56,30.23,10.0,NNE,11.5,-,0.00,,Overcast,30,2014-02-11 10:53:00
6:53 AM,32.0,18.0,56,30.26,10.0,North,12.7,-,N/A,,Overcast,10,2014-02-11 11:53:00
7:53 AM,32.0,19.0,59,30.28,10.0,NNE,11.5,-,N/A,,Overcast,20,2014-02-11 12:53:00
8:53 AM,32.0,19.0,59,30.30,10.0,NNE,10.4,-,N/A,,Overcast,20,2014-02-11 13:53:00
9:53 AM,33.1,19.9,59,30.31,10.0,North,9.2,-,N/A,,Overcast,10,2014-02-11 14:53:00
10:53 AM,34.0,19.9,56,30.32,10.0,NNE,10.4,-,N/A,,Overcast,20,2014-02-11 15:53:00
11:53 AM,36.0,19.9,52,30.31,10.0,North,11.5,-,N/A,,Mostly Cloudy,350,2014-02-11 16:53:00
12:53 PM,36.0,21.0,55,30.30,10.0,North,9.2,-,N/A,,Mostly Cloudy,360,2014-02-11 17:53:00
1:53 PM,37.9,21.0,51,30.27,10.0,North,10.4,-,N/A,,Mostly Cloudy,10,2014-02-11 18:53:00
2:53 PM,39.9,21.9,49,30.26,10.0,NNE,9.2,-,N/A,,Overcast,30,2014-02-11 19:53:00
3:53 PM,41.0,21.9,47,30.25,10.0,North,6.9,-,N/A,,Mostly Cloudy,10,2014-02-11 20:53:00
4:53 PM,42.1,21.0,43,30.25,10.0,ENE,8.1,-,N/A,,Mostly Cloudy,60,2014-02-11 21:53:00
5:53 PM,41.0,21.9,47,30.25,10.0,Calm,Calm,-,N/A,,Mostly Cloudy,0,2014-02-11 22:53:00
6:53 PM,39.0,21.9,50,30.26,10.0,Calm,Calm,-,N/A,,Mostly Cloudy,0,2014-02-11 23:53:00
7:53 PM,35.1,24.1,64,30.25,10.0,Calm,Calm,-,N/A,,Mostly Cloudy,0,2014-02-12 00:53:00
8:53 PM,34.0,26.1,73,30.25,10.0,Calm,Calm,-,N/A,,Mostly Cloudy,0,2014-02-12 01:53:00
9:53 PM,34.0,26.1,73,30.24,10.0,Calm,Calm,-,N/A,,Mostly Cloudy,0,2014-02-12 02:53:00
10:53 PM,34.0,28.0,79,30.27,10.0,Calm,Calm,-,N/A,,Overcast,0,2014-02-12 03:53:00
11:53 PM,34.0,27.0,75,30.26,10.0,Calm,Calm,-,N/A,,Overcast,0,2014-02-12 04:53:00